Time;durP1;ratioP1;P1;durP2;ratioP2;P2;SDS_P1;SDS_P2;PMS_P1;PMS_P2;Temp;Humidity;BMP_temperature;BMP_pressure;BME280_temperature;BME280_humidity;BME280_pressure;Samples;Min_cycle;Max_cycle;Signal;HPM_P1;HPM_P2
2021/03/30 00:00:37;;;;;;;106.93;38.65;;;8.30;95.90;;;;;;5001403;28;20338;-67
2021/03/30 00:03:04;;;;;;;95.93;36.28;;;8.30;96.00;;;;;;5003778;28;20029;-68
2021/03/30 00:05:30;;;;;;;89.57;35.10;;;8.20;95.80;;;;;;5008188;28;20065;-67
2021/03/30 00:07:55;;;;;;;80.90;35.53;;;8.10;95.70;;;;;;5005578;28;20068;-68
2021/03/30 00:10:26;;;;;;;94.05;35.58;;;8.00;95.70;;;;;;5006168;28;20362;-68
2021/03/30 00:12:52;;;;;;;104.97;37.15;;;8.00;95.70;;;;;;5003453;28;20088;-67
2021/03/30 00:15:17;;;;;;;104.07;37.25;;;7.90;95.70;;;;;;5006428;28;20426;-67
2021/03/30 00:17:43;;;;;;;123.07;38.13;;;8.00;96.00;;;;;;5005003;28;20029;-67
2021/03/30 00:20:14;;;;;;;125.05;38.13;;;8.10;96.20;;;;;;5005189;28;20097;-67
2021/03/30 00:22:41;;;;;;;119.30;39.17;;;8.30;96.30;;;;;;5005100;28;20046;-67
2021/03/30 00:25:09;;;;;;;116.35;38.60;;;8.40;96.30;;;;;;5004756;28;20034;-67
2021/03/30 00:27:35;;;;;;;123.63;41.13;;;8.40;96.30;;;;;;5004293;28;20045;-68
2021/03/30 00:30:02;;;;;;;111.18;40.33;;;8.40;96.20;;;;;;5004186;28;20053;-68
2021/03/30 00:32:27;;;;;;;93.72;36.45;;;8.30;96.00;;;;;;5008114;28;20418;-68
2021/03/30 00:34:53;;;;;;;107.35;37.10;;;8.10;95.80;;;;;;5004198;28;20030;-67
2021/03/30 00:37:18;;;;;;;120.63;38.20;;;8.00;96.00;;;;;;5008956;28;20220;-68
2021/03/30 00:39:44;;;;;;;119.18;39.55;;;8.10;96.20;;;;;;5007087;28;20033;-67
2021/03/30 00:42:10;;;;;;;115.78;37.45;;;8.20;96.40;;;;;;5005910;28;20514;-68
2021/03/30 00:44:36;;;;;;;107.60;37.45;;;8.30;96.40;;;;;;5002606;28;20161;-67
2021/03/30 00:47:02;;;;;;;117.85;37.63;;;8.30;96.30;;;;;;5005857;28;20037;-68
2021/03/30 00:49:32;;;;;;;104.53;37.08;;;8.20;96.20;;;;;;5005704;28;20014;-68
2021/03/30 00:51:58;;;;;;;111.88;38.90;;;8.10;96.20;;;;;;5004356;28;20426;-67
2021/03/30 00:54:26;;;;;;;101.68;36.47;;;8.10;96.20;;;;;;5009935;28;20069;-68
2021/03/30 00:56:51;;;;;;;108.85;37.22;;;8.20;96.20;;;;;;5007171;28;20434;-68
2021/03/30 00:59:19;;;;;;;108.63;35.92;;;8.10;96.20;;;;;;5008363;28;20044;-68
2021/03/30 01:01:45;;;;;;;95.78;36.17;;;8.00;96.20;;;;;;5009950;28;20029;-68
2021/03/30 01:04:11;;;;;;;101.85;36.20;;;8.00;96.20;;;;;;5012264;28;20030;-69
2021/03/30 01:06:37;;;;;;;97.93;35.30;;;8.00;96.30;;;;;;5012569;28;20417;-68
2021/03/30 01:09:12;;;;;;;108.38;36.47;;;7.90;96.20;;;;;;5011458;28;20360;-68
2021/03/30 01:12:15;;;;;;;96.10;34.55;;;7.80;96.20;;;;;;5007749;28;20026;-68
2021/03/30 01:14:47;;;;;;;108.07;34.60;;;7.80;96.30;;;;;;5009091;28;20076;-67
2021/03/30 01:17:29;;;;;;;109.07;34.97;;;7.60;96.20;;;;;;5006211;28;20214;-68
2021/03/30 01:20:16;;;;;;;117.40;34.58;;;7.60;96.20;;;;;;5009816;28;20045;-69
2021/03/30 01:23:06;;;;;;;107.10;34.83;;;7.60;96.30;;;;;;5004990;28;20048;-69
2021/03/30 01:25:36;;;;;;;116.30;36.78;;;7.50;96.50;;;;;;5005903;28;20033;-69
2021/03/30 01:28:29;;;;;;;108.95;35.70;;;7.50;96.60;;;;;;5006142;28;20112;-68
2021/03/30 01:30:57;;;;;;;108.50;36.58;;;7.50;96.50;;;;;;4985902;28;20092;-68
2021/03/30 01:33:28;;;;;;;122.93;38.60;;;7.60;96.70;;;;;;5012235;28;20323;-69
2021/03/30 01:35:54;;;;;;;141.82;40.65;;;7.50;96.70;;;;;;5008993;28;20169;-69
2021/03/30 01:38:22;;;;;;;117.07;35.88;;;7.60;96.80;;;;;;5010576;28;20041;-69
2021/03/30 01:40:52;;;;;;;145.40;41.58;;;7.50;96.80;;;;;;5010604;28;20061;-69
2021/03/30 01:43:20;;;;;;;135.48;40.60;;;7.50;96.90;;;;;;5011217;28;20539;-69
2021/03/30 01:45:46;;;;;;;128.75;40.42;;;7.50;96.90;;;;;;5005663;28;20030;-68
2021/03/30 01:48:13;;;;;;;147.95;42.90;;;7.60;97.00;;;;;;5009548;28;20286;-69
2021/03/30 01:50:39;;;;;;;135.68;39.08;;;7.50;97.00;;;;;;5010182;28;20192;-68
2021/03/30 01:53:09;;;;;;;137.18;40.63;;;7.40;96.90;;;;;;5010821;28;20030;-68
2021/03/30 01:55:35;;;;;;;141.55;39.13;;;7.30;96.90;;;;;;5008592;28;20022;-68
2021/03/30 01:58:02;;;;;;;138.13;38.80;;;7.30;97.00;;;;;;5007563;28;20040;-68
2021/03/30 02:00:36;;;;;;;126.07;39.15;;;7.20;97.00;;;;;;5008351;28;20032;-68
2021/03/30 02:03:05;;;;;;;128.90;39.45;;;7.20;97.10;;;;;;5007293;28;20030;-68
2021/03/30 02:05:31;;;;;;;137.13;40.60;;;7.20;97.10;;;;;;5017439;28;20038;-68
2021/03/30 02:08:00;;;;;;;141.32;41.83;;;7.50;97.30;;;;;;5011670;28;20422;-68
2021/03/30 02:10:37;;;;;;;142.07;43.60;;;7.60;97.50;;;;;;5008563;28;20022;-68
2021/03/30 02:13:06;;;;;;;136.27;43.25;;;7.70;97.50;;;;;;5003802;28;20459;-68
2021/03/30 02:15:32;;;;;;;143.73;43.40;;;7.70;97.40;;;;;;5002938;28;20117;-68
2021/03/30 02:18:09;;;;;;;150.88;44.08;;;7.70;97.40;;;;;;5008297;28;20049;-69
2021/03/30 02:20:40;;;;;;;165.50;45.35;;;7.80;97.50;;;;;;5006900;28;20022;-68
2021/03/30 02:23:14;;;;;;;145.60;44.13;;;7.80;97.50;;;;;;4994346;28;20030;-68
2021/03/30 02:25:42;;;;;;;158.68;46.78;;;7.90;97.50;;;;;;5010496;28;20028;-69
2021/03/30 02:28:14;;;;;;;171.27;47.38;;;7.80;97.50;;;;;;5006274;28;20068;-68
2021/03/30 02:30:41;;;;;;;155.88;46.60;;;7.90;97.50;;;;;;5009641;28;20029;-68
2021/03/30 02:33:09;;;;;;;146.32;46.30;;;7.80;97.50;;;;;;5005676;28;20025;-68
2021/03/30 02:35:37;;;;;;;167.57;44.47;;;7.80;97.50;;;;;;5010812;28;20030;-68
2021/03/30 02:38:04;;;;;;;145.00;43.75;;;7.70;97.40;;;;;;5000109;28;20675;-69
2021/03/30 02:40:31;;;;;;;149.20;42.67;;;7.70;97.40;;;;;;5008441;28;20026;-68
2021/03/30 02:42:58;;;;;;;144.88;42.53;;;7.80;97.50;;;;;;5002674;28;20148;-68
2021/03/30 02:45:27;;;;;;;146.85;43.28;;;7.80;97.50;;;;;;5013991;28;20588;-68
2021/03/30 02:47:58;;;;;;;135.93;42.38;;;7.80;97.50;;;;;;5006206;28;20073;-67
2021/03/30 02:50:26;;;;;;;145.95;43.47;;;7.80;97.50;;;;;;5008444;28;20050;-68
2021/03/30 02:52:53;;;;;;;145.98;41.47;;;7.80;97.50;;;;;;5002348;28;20458;-67
2021/03/30 02:55:19;;;;;;;139.40;41.80;;;7.70;97.50;;;;;;5007521;28;20037;-68
2021/03/30 02:57:45;;;;;;;127.68;40.35;;;7.60;97.50;;;;;;5006795;28;20104;-68
2021/03/30 03:00:13;;;;;;;126.70;40.22;;;7.70;97.50;;;;;;5006054;28;20312;-69
2021/03/30 03:02:41;;;;;;;118.03;39.13;;;7.70;97.50;;;;;;5006951;28;20037;-68
2021/03/30 03:05:09;;;;;;;113.63;37.67;;;7.70;97.50;;;;;;5012658;28;20034;-68
2021/03/30 03:07:36;;;;;;;109.22;37.53;;;7.60;97.40;;;;;;5015010;28;20084;-67
2021/03/30 03:10:04;;;;;;;113.70;36.50;;;7.60;97.30;;;;;;5010664;28;20411;-68
2021/03/30 03:12:31;;;;;;;117.55;37.78;;;7.60;97.20;;;;;;5016616;28;20034;-68
2021/03/30 03:15:00;;;;;;;110.07;37.83;;;7.50;97.10;;;;;;5005853;28;20105;-68
2021/03/30 03:17:26;;;;;;;96.13;35.38;;;7.50;97.00;;;;;;5004277;28;20061;-68
2021/03/30 03:19:53;;;;;;;100.97;35.63;;;7.40;96.80;;;;;;5005334;28;20093;-68
2021/03/30 03:22:19;;;;;;;102.22;36.17;;;7.50;96.80;;;;;;5007563;28;20076;-69
2021/03/30 03:24:51;;;;;;;102.03;35.40;;;7.50;96.60;;;;;;5005867;28;20064;-68
2021/03/30 03:27:17;;;;;;;;;;;7.50;96.40;;;;;;5013699;28;20022;-68
2021/03/30 03:29:42;;;;;;;88.60;31.10;;;7.40;96.20;;;;;;5008411;28;19910;-68
2021/03/30 03:32:08;;;;;;;87.65;32.63;;;7.40;96.10;;;;;;5016216;28;20040;-68
2021/03/30 03:34:38;;;;;;;90.30;33.03;;;7.40;95.90;;;;;;5009870;28;20430;-69
2021/03/30 03:37:05;;;;;;;78.47;31.98;;;7.40;95.80;;;;;;5007821;28;20030;-69
2021/03/30 03:39:31;;;;;;;86.13;30.63;;;7.40;95.50;;;;;;5009087;28;20538;-69
2021/03/30 03:41:57;;;;;;;80.93;31.33;;;7.40;95.40;;;;;;5014570;28;20033;-68
2021/03/30 03:44:29;;;;;;;82.68;30.33;;;7.30;95.20;;;;;;5008784;28;20123;-69
2021/03/30 03:46:55;;;;;;;70.28;31.02;;;7.30;95.00;;;;;;5011706;28;20372;-68
2021/03/30 03:49:24;;;;;;;76.25;29.45;;;7.40;94.70;;;;;;5007962;28;20569;-69
2021/03/30 03:51:56;;;;;;;62.42;28.20;;;7.40;94.40;;;;;;5006309;28;20042;-69
2021/03/30 03:54:22;;;;;;;61.20;27.38;;;7.40;94.10;;;;;;5004533;28;20022;-70
2021/03/30 03:56:52;;;;;;;62.28;27.10;;;7.40;93.90;;;;;;5004846;28;20030;-69
2021/03/30 03:59:26;;;;;;;47.65;25.15;;;7.30;93.80;;;;;;5007186;28;20069;-68
2021/03/30 04:02:06;;;;;;;61.17;25.33;;;7.40;93.70;;;;;;5018965;28;20037;-68
2021/03/30 04:04:41;;;;;;;53.63;24.63;;;7.30;93.40;;;;;;5010585;28;20034;-68
2021/03/30 04:07:13;;;;;;;48.58;23.90;;;7.30;93.20;;;;;;5002687;28;20033;-69
2021/03/30 04:09:40;;;;;;;40.30;22.13;;;7.30;93.10;;;;;;5006250;28;20022;-69
2021/03/30 04:12:08;;;;;;;41.70;22.52;;;7.20;92.70;;;;;;5010371;28;20036;-67
2021/03/30 04:14:34;;;;;;;47.60;22.15;;;7.20;92.80;;;;;;5008143;28;20033;-68
2021/03/30 04:17:00;;;;;;;47.30;22.63;;;7.10;92.80;;;;;;5004150;28;20371;-69
2021/03/30 04:19:25;;;;;;;41.88;22.95;;;7.10;92.70;;;;;;5000615;28;20037;-68
2021/03/30 04:21:51;;;;;;;41.13;21.25;;;7.00;92.80;;;;;;5007328;28;20030;-67
2021/03/30 04:24:16;;;;;;;37.35;21.25;;;7.00;92.90;;;;;;5004810;28;20026;-68
2021/03/30 04:26:42;;;;;;;38.55;20.60;;;7.00;92.70;;;;;;5005047;28;20204;-68
2021/03/30 04:29:09;;;;;;;35.63;20.70;;;6.90;92.60;;;;;;5010986;28;20443;-68
2021/03/30 04:31:34;;;;;;;33.50;19.58;;;6.90;92.40;;;;;;5011939;28;20018;-68
2021/03/30 04:34:00;;;;;;;36.47;19.67;;;6.90;92.20;;;;;;5011567;28;20442;-69
2021/03/30 04:36:26;;;;;;;33.83;19.63;;;6.90;91.90;;;;;;5009571;28;20037;-68
2021/03/30 04:38:52;;;;;;;30.05;18.75;;;6.90;91.70;;;;;;5010338;28;20025;-68
2021/03/30 04:41:17;;;;;;;33.67;18.27;;;6.80;91.70;;;;;;5017532;28;20111;-68
2021/03/30 04:43:43;;;;;;;32.80;18.52;;;6.80;91.60;;;;;;5011003;28;20025;-68
2021/03/30 04:46:09;;;;;;;32.65;18.20;;;6.70;91.40;;;;;;5010374;28;20033;-68
2021/03/30 04:48:36;;;;;;;28.77;18.23;;;6.60;91.70;;;;;;5009611;28;20057;-67
2021/03/30 04:51:03;;;;;;;26.17;16.67;;;6.70;91.70;;;;;;5010090;28;20390;-68
2021/03/30 04:53:29;;;;;;;31.33;17.08;;;6.70;91.10;;;;;;5010297;28;20032;-68
2021/03/30 04:55:54;;;;;;;38.50;17.80;;;6.70;90.90;;;;;;5012086;28;20022;-67
2021/03/30 04:58:20;;;;;;;25.33;16.10;;;6.60;90.60;;;;;;5008886;28;20136;-68
2021/03/30 05:00:46;;;;;;;21.77;15.27;;;6.80;89.60;;;;;;5006614;28;20025;-68
2021/03/30 05:03:12;;;;;;;26.17;16.30;;;6.70;89.70;;;;;;5011381;28;20022;-68
2021/03/30 05:05:38;;;;;;;29.63;15.70;;;6.70;89.50;;;;;;5012187;28;20092;-68
2021/03/30 05:08:04;;;;;;;22.77;15.63;;;6.80;88.90;;;;;;5016740;28;20498;-68
2021/03/30 05:10:30;;;;;;;26.40;15.23;;;6.80;88.80;;;;;;5002120;28;20089;-68
2021/03/30 05:12:55;;;;;;;26.90;15.55;;;6.60;89.30;;;;;;5014555;28;20025;-69
2021/03/30 05:15:21;;;;;;;24.30;14.57;;;6.60;89.40;;;;;;5008890;28;20101;-67
2021/03/30 05:17:47;;;;;;;21.77;13.48;;;6.60;88.40;;;;;;5008058;28;20029;-68
2021/03/30 05:20:14;;;;;;;20.13;13.82;;;6.80;87.90;;;;;;5008870;28;20037;-68
2021/03/30 05:22:39;;;;;;;20.73;13.45;;;6.70;88.00;;;;;;5011374;28;20538;-69
2021/03/30 05:25:07;;;;;;;22.33;12.82;;;6.80;87.40;;;;;;5009785;28;20029;-68
2021/03/30 05:27:37;;;;;;;21.65;12.82;;;6.90;86.80;;;;;;5009836;28;20486;-68
2021/03/30 05:30:09;;;;;;;23.10;13.88;;;6.90;86.50;;;;;;5013196;28;20034;-67
2021/03/30 05:32:34;;;;;;;21.45;13.40;;;6.90;86.60;;;;;;4989062;28;20612;-68
2021/03/30 05:35:00;;;;;;;18.88;12.50;;;6.90;86.60;;;;;;4990346;28;20137;-67
2021/03/30 05:37:26;;;;;;;18.67;12.68;;;6.80;86.60;;;;;;4990656;28;20030;-67
2021/03/30 05:39:51;;;;;;;24.00;12.60;;;6.90;86.40;;;;;;5005831;28;20077;-67
2021/03/30 05:42:19;;;;;;;19.92;13.13;;;6.90;86.30;;;;;;4989995;28;20040;-68
2021/03/30 05:44:45;;;;;;;19.23;12.75;;;6.90;85.90;;;;;;4989829;28;20883;-68
2021/03/30 05:49:40;;;;;;;21.52;13.00;;;6.90;85.70;;;;;;5011819;28;20075;-68
2021/03/30 05:52:22;;;;;;;24.45;13.07;;;7.00;85.30;;;;;;5008102;28;20032;-68
2021/03/30 05:54:50;;;;;;;18.23;11.20;;;7.00;85.40;;;;;;5009558;28;20029;-68
2021/03/30 05:57:17;;;;;;;21.58;12.32;;;7.10;85.10;;;;;;5010024;28;20037;-68
2021/03/30 05:59:45;;;;;;;19.27;11.68;;;7.20;84.50;;;;;;5009451;28;20029;-69
2021/03/30 06:02:19;;;;;;;21.98;12.25;;;7.30;84.30;;;;;;5009906;28;20021;-68
2021/03/30 06:04:46;;;;;;;17.08;11.30;;;7.40;83.30;;;;;;5012439;28;20108;-68
2021/03/30 06:07:12;;;;;;;17.08;10.68;;;7.50;82.40;;;;;;5011401;28;20022;-68
2021/03/30 06:09:41;;;;;;;16.95;11.40;;;7.50;82.80;;;;;;5004340;28;20092;-68
2021/03/30 06:12:08;;;;;;;21.35;11.20;;;7.70;81.80;;;;;;5007167;28;20157;-68
2021/03/30 06:14:41;;;;;;;16.05;10.57;;;7.80;81.50;;;;;;5008607;28;20054;-67
2021/03/30 06:17:08;;;;;;;18.88;11.32;;;7.80;81.20;;;;;;5015181;28;20045;-67
2021/03/30 06:19:54;;;;;;;15.30;10.32;;;7.90;81.10;;;;;;5005768;28;20554;-68
2021/03/30 06:22:24;;;;;;;15.63;10.57;;;8.00;81.60;;;;;;5005169;28;20061;-68
2021/03/30 06:24:52;;;;;;;19.35;10.23;;;8.00;80.90;;;;;;5006079;28;20026;-68
2021/03/30 06:27:20;;;;;;;15.45;10.27;;;8.10;79.90;;;;;;5008411;28;20029;-68
2021/03/30 06:29:48;;;;;;;17.38;10.48;;;8.30;80.10;;;;;;5007885;28;20557;-68
2021/03/30 06:32:18;;;;;;;15.23;10.25;;;8.40;79.50;;;;;;5009078;28;20105;-68
2021/03/30 06:34:46;;;;;;;15.27;10.10;;;8.50;79.40;;;;;;5006810;28;20419;-68
2021/03/30 06:37:26;;;;;;;19.35;10.48;;;8.60;78.60;;;;;;5005936;28;20030;-68
2021/03/30 06:39:53;;;;;;;15.10;10.23;;;8.60;77.80;;;;;;5008139;28;20030;-68
2021/03/30 06:45:11;;;;;;;;;;;8.80;77.20;;;;;;5002072;28;20506;-68
2021/03/30 06:47:37;;;;;;;13.23;9.05;;;8.90;77.40;;;;;;5008185;28;19909;-67
2021/03/30 06:50:09;;;;;;;17.25;9.98;;;9.00;77.30;;;;;;5001762;28;20061;-68
2021/03/30 06:52:36;;;;;;;16.67;10.10;;;9.20;76.80;;;;;;5019507;28;20034;-67
2021/03/30 06:55:03;;;;;;;13.48;9.77;;;9.30;76.20;;;;;;5005957;28;20018;-68
2021/03/30 06:57:41;;;;;;;15.88;9.50;;;9.50;76.70;;;;;;5008662;28;20548;-68
2021/03/30 07:00:11;;;;;;;16.92;10.55;;;9.50;75.70;;;;;;5006457;28;20519;-68
2021/03/30 07:02:48;;;;;;;17.20;10.18;;;9.70;75.70;;;;;;5014296;28;20618;-68
2021/03/30 07:05:58;;;;;;;16.55;9.88;;;9.80;75.20;;;;;;5007133;28;20306;-68
2021/03/30 07:08:24;;;;;;;16.77;9.13;;;10.00;74.80;;;;;;4997843;28;20030;-68
2021/03/30 07:10:51;;;;;;;17.98;9.40;;;10.10;73.70;;;;;;5001650;28;20033;-68
2021/03/30 07:13:21;;;;;;;18.83;9.15;;;10.30;73.90;;;;;;5007419;28;20566;-68
2021/03/30 07:15:49;;;;;;;18.27;9.02;;;10.30;72.40;;;;;;5008724;28;20021;-68
2021/03/30 07:18:26;;;;;;;14.50;9.88;;;10.30;72.90;;;;;;5003985;28;20560;-68
2021/03/30 07:20:56;;;;;;;15.15;9.00;;;10.50;72.70;;;;;;5008212;28;20065;-68
2021/03/30 07:23:27;;;;;;;16.10;8.35;;;10.50;71.60;;;;;;5006265;28;20041;-68
2021/03/30 07:25:58;;;;;;;;;;;10.60;72.40;;;;;;4998922;28;20445;-67
2021/03/30 07:28:30;;;;;;;;;;;10.80;71.80;;;;;;5005918;28;19909;-68
2021/03/30 07:31:03;;;;;;;13.02;8.38;;;10.80;71.10;;;;;;5002353;28;19917;-68
2021/03/30 07:33:41;;;;;;;15.55;8.23;;;10.90;70.70;;;;;;5010500;28;20029;-69
2021/03/30 07:36:10;;;;;;;12.10;7.82;;;11.00;70.30;;;;;;5003408;28;20028;-68
2021/03/30 07:38:41;;;;;;;14.27;8.55;;;11.10;70.30;;;;;;5004094;28;20361;-68
2021/03/30 07:41:07;;;;;;;16.90;8.05;;;11.20;71.40;;;;;;5001860;28;20356;-68
2021/03/30 07:43:33;;;;;;;13.90;7.50;;;11.30;69.20;;;;;;5010033;28;20018;-69
2021/03/30 07:46:02;;;;;;;16.08;8.27;;;11.40;68.90;;;;;;5000516;28;20498;-68
2021/03/30 07:48:31;;;;;;;15.20;7.85;;;11.50;69.20;;;;;;5011910;28;20034;-68
2021/03/30 07:51:06;;;;;;;13.05;7.47;;;11.70;69.20;;;;;;5001756;28;20034;-69
2021/03/30 07:53:52;;;;;;;18.90;8.52;;;11.80;69.80;;;;;;5001450;28;20270;-68
2021/03/30 07:56:24;;;;;;;15.60;8.00;;;12.00;68.80;;;;;;5003609;28;20030;-68
2021/03/30 07:58:52;;;;;;;13.13;7.50;;;12.30;69.10;;;;;;4995770;28;20026;-68
2021/03/30 08:01:19;;;;;;;15.15;7.88;;;12.40;69.50;;;;;;4998091;28;20112;-68
2021/03/30 08:03:47;;;;;;;15.18;8.10;;;12.60;69.10;;;;;;5004240;28;20030;-70
2021/03/30 08:06:27;;;;;;;11.60;6.95;;;12.80;68.60;;;;;;5005044;28;20026;-68
2021/03/30 08:09:07;;;;;;;16.00;8.52;;;12.90;68.40;;;;;;5005817;28;20149;-68
2021/03/30 08:11:58;;;;;;;11.90;6.95;;;13.00;67.70;;;;;;5000321;28;20026;-69
2021/03/30 08:14:28;;;;;;;16.30;7.43;;;13.20;67.20;;;;;;5000121;28;20112;-68
2021/03/30 08:16:56;;;;;;;16.83;7.13;;;13.40;68.10;;;;;;4993251;28;20038;-68
2021/03/30 08:19:25;;;;;;;16.67;7.07;;;13.40;67.00;;;;;;5003938;28;20117;-68
2021/03/30 08:21:55;;;;;;;16.15;7.90;;;13.70;65.80;;;;;;5018423;28;20038;-70
2021/03/30 08:24:25;;;;;;;15.52;7.57;;;13.70;66.20;;;;;;5001600;28;20143;-68
2021/03/30 08:26:51;;;;;;;14.07;6.95;;;14.00;66.20;;;;;;5002377;28;20513;-68
2021/03/30 08:29:34;;;;;;;15.02;7.45;;;14.30;66.30;;;;;;5007276;28;20030;-68
2021/03/30 08:32:01;;;;;;;16.48;7.50;;;14.30;65.10;;;;;;5008880;28;20037;-68
2021/03/30 08:34:39;;;;;;;12.02;6.90;;;14.50;66.00;;;;;;5003674;28;20537;-69
2021/03/30 08:37:13;;;;;;;12.40;6.13;;;14.70;65.80;;;;;;5003441;28;20469;-68
2021/03/30 08:39:40;;;;;;;15.32;7.10;;;14.60;65.00;;;;;;5005620;28;20033;-68
2021/03/30 08:42:17;;;;;;;12.80;6.78;;;14.80;65.30;;;;;;5008983;28;20041;-68
2021/03/30 08:44:56;;;;;;;15.07;6.75;;;15.00;64.70;;;;;;4999184;28;20038;-68
2021/03/30 08:47:36;;;;;;;14.93;6.82;;;15.10;64.60;;;;;;4999549;28;20029;-69
2021/03/30 08:50:22;;;;;;;11.85;6.50;;;15.20;64.50;;;;;;5008027;28;20052;-68
2021/03/30 08:52:48;;;;;;;14.98;6.53;;;15.30;64.20;;;;;;5004837;28;20785;-68
2021/03/30 08:55:14;;;;;;;13.43;6.40;;;15.50;64.80;;;;;;5006419;28;20524;-68
2021/03/30 08:57:50;;;;;;;14.15;6.13;;;15.40;64.10;;;;;;4998514;28;20033;-68
2021/03/30 09:00:17;;;;;;;17.45;6.72;;;15.50;65.10;;;;;;5009312;28;20165;-68
2021/03/30 09:02:43;;;;;;;13.80;6.30;;;15.50;64.50;;;;;;5003534;28;20030;-68
2021/03/30 09:05:19;;;;;;;16.65;6.28;;;15.80;65.30;;;;;;5002362;28;20026;-69
2021/03/30 09:07:48;;;;;;;14.77;6.30;;;15.90;64.60;;;;;;5002237;28;20030;-68
2021/03/30 09:10:16;;;;;;;10.88;6.15;;;16.20;64.10;;;;;;5006500;28;20474;-69
2021/03/30 09:12:42;;;;;;;11.88;6.07;;;16.10;63.10;;;;;;5009376;28;20155;-68
2021/03/30 09:15:10;;;;;;;10.60;6.18;;;16.50;64.30;;;;;;5007057;28;20018;-68
2021/03/30 09:17:53;;;;;;;11.27;5.65;;;16.40;63.70;;;;;;5006275;28;22347;-67
2021/03/30 09:20:18;;;;;;;9.07;5.38;;;16.70;63.60;;;;;;5010479;28;20092;-69
2021/03/30 09:22:46;;;;;;;11.93;5.70;;;16.60;62.30;;;;;;5004725;28;20046;-68
2021/03/30 09:27:41;;;;;;;11.35;5.30;;;16.60;65.00;;;;;;5000445;28;20041;-67
2021/03/30 09:30:15;;;;;;;9.43;5.30;;;16.50;63.50;;;;;;5005720;28;20207;-69
2021/03/30 09:32:43;;;;;;;9.13;5.32;;;16.40;63.10;;;;;;5010446;28;20067;-69
2021/03/30 09:35:20;;;;;;;9.07;4.90;;;16.60;62.60;;;;;;5002148;28;20246;-69
2021/03/30 09:37:57;;;;;;;11.32;5.18;;;16.50;62.70;;;;;;5002595;28;20113;-69
2021/03/30 09:40:30;;;;;;;10.63;5.68;;;16.50;62.80;;;;;;5003074;28;20506;-68
2021/03/30 09:42:56;;;;;;;11.32;5.35;;;16.90;62.30;;;;;;5007258;28;20104;-68
2021/03/30 09:45:30;;;;;;;9.88;4.70;;;17.10;63.30;;;;;;5002811;28;20486;-68
2021/03/30 09:47:56;;;;;;;11.85;4.30;;;17.40;62.10;;;;;;5002897;28;20038;-68
2021/03/30 09:50:24;;;;;;;8.40;4.50;;;17.50;61.70;;;;;;5002769;28;20444;-68
2021/03/30 09:52:51;;;;;;;8.80;3.58;;;17.90;61.60;;;;;;5001838;28;20045;-68
2021/03/30 09:55:34;;;;;;;7.28;3.20;;;17.50;58.90;;;;;;5011646;28;20605;-68
2021/03/30 09:58:06;;;;;;;8.13;3.90;;;17.60;59.60;;;;;;5007587;28;20026;-68
2021/03/30 10:00:34;;;;;;;10.35;4.32;;;17.40;59.20;;;;;;5010182;28;20486;-69
2021/03/30 10:03:00;;;;;;;8.57;3.85;;;17.60;59.40;;;;;;5004597;28;20510;-69
2021/03/30 10:05:35;;;;;;;8.95;3.95;;;17.60;59.50;;;;;;5007495;28;20025;-69
2021/03/30 10:08:02;;;;;;;8.55;3.30;;;17.70;60.40;;;;;;5006869;28;20032;-68
2021/03/30 10:10:41;;;;;;;6.50;3.60;;;17.90;58.20;;;;;;5002222;28;20055;-69
2021/03/30 10:13:08;;;;;;;9.02;4.05;;;18.00;58.00;;;;;;5003190;28;20032;-68
2021/03/30 10:15:33;;;;;;;7.22;3.42;;;18.00;56.50;;;;;;5016959;28;20100;-68
2021/03/30 10:18:00;;;;;;;10.45;4.15;;;17.60;58.10;;;;;;5007129;28;20159;-68
2021/03/30 10:20:26;;;;;;;8.02;3.50;;;18.00;58.00;;;;;;5014535;28;20033;-69
2021/03/30 10:22:52;;;;;;;7.20;3.60;;;18.30;58.00;;;;;;5004856;28;20487;-68
2021/03/30 10:25:21;;;;;;;7.60;3.47;;;18.00;57.10;;;;;;5003881;28;20598;-68
2021/03/30 10:27:56;;;;;;;9.88;4.30;;;18.00;56.70;;;;;;5005702;28;20546;-69
2021/03/30 10:30:46;;;;;;;9.10;4.22;;;18.40;56.20;;;;;;5008392;28;20505;-68
2021/03/30 10:33:18;;;;;;;7.97;4.40;;;18.30;57.10;;;;;;5006076;28;20597;-68
2021/03/30 10:35:44;;;;;;;10.55;4.47;;;18.30;56.50;;;;;;4997850;28;20030;-68
2021/03/30 10:38:10;;;;;;;10.02;4.63;;;18.50;55.80;;;;;;4989909;28;20810;-68
2021/03/30 10:40:38;;;;;;;10.18;4.13;;;18.80;55.60;;;;;;5005549;28;20046;-68
2021/03/30 10:43:25;;;;;;;8.82;4.00;;;18.60;54.70;;;;;;5003075;28;20054;-68
2021/03/30 10:45:52;;;;;;;8.88;4.10;;;18.80;53.30;;;;;;5006022;28;20032;-68
2021/03/30 10:48:19;;;;;;;9.07;4.00;;;19.20;53.00;;;;;;5004983;28;20102;-68
2021/03/30 10:50:44;;;;;;;6.53;3.28;;;19.30;51.10;;;;;;5011378;28;20112;-68
2021/03/30 10:53:11;;;;;;;11.13;3.67;;;19.10;52.50;;;;;;5005135;28;20778;-69
2021/03/30 10:55:38;;;;;;;7.50;3.92;;;18.90;52.40;;;;;;5003628;28;20025;-69
2021/03/30 10:58:07;;;;;;;7.63;3.80;;;19.20;52.20;;;;;;5002533;28;20034;-68
2021/03/30 11:00:33;;;;;;;7.57;3.90;;;19.00;51.90;;;;;;5006608;28;20030;-68
2021/03/30 11:02:59;;;;;;;5.53;3.28;;;19.00;51.60;;;;;;5008994;28;20317;-68
2021/03/30 11:05:25;;;;;;;9.15;3.75;;;19.40;50.60;;;;;;5005913;28;20037;-68
2021/03/30 11:07:52;;;;;;;6.53;3.40;;;19.50;50.90;;;;;;5001720;28;20032;-67
2021/03/30 11:10:18;;;;;;;6.50;3.53;;;19.60;48.70;;;;;;5005734;28;20099;-68
2021/03/30 11:12:43;;;;;;;10.60;3.88;;;19.50;49.20;;;;;;5009235;28;20084;-68
2021/03/30 11:15:11;;;;;;;8.45;3.70;;;19.30;50.30;;;;;;5001293;28;20034;-67
2021/03/30 11:17:37;;;;;;;7.13;3.90;;;19.40;49.00;;;;;;5002033;28;20406;-68
2021/03/30 11:20:04;;;;;;;9.32;4.20;;;19.50;49.30;;;;;;5006408;28;20030;-69
2021/03/30 11:22:29;;;;;;;10.15;3.53;;;19.50;50.10;;;;;;5010366;28;20022;-68
2021/03/30 11:25:04;;;;;;;9.35;4.22;;;19.50;48.70;;;;;;5005792;28;20612;-68
2021/03/30 11:27:31;;;;;;;10.52;3.85;;;19.60;48.60;;;;;;5007513;28;20103;-69
2021/03/30 11:32:47;;;;;;;;;;;19.70;49.00;;;;;;5008715;28;20033;-68
2021/03/30 11:37:51;;;;;;;8.90;3.78;;;20.00;48.90;;;;;;5004841;28;20037;-68
2021/03/30 11:40:17;;;;;;;7.20;3.78;;;20.20;47.70;;;;;;5006843;28;20026;-68
2021/03/30 11:42:42;;;;;;;7.90;3.63;;;20.50;47.10;;;;;;5007469;28;20022;-69
2021/03/30 11:45:09;;;;;;;7.03;3.53;;;20.50;46.90;;;;;;4995306;28;20028;-69
2021/03/30 11:47:34;;;;;;;8.13;3.47;;;20.40;47.10;;;;;;5003899;28;20119;-68
2021/03/30 11:50:01;;;;;;;10.52;3.58;;;20.40;47.60;;;;;;4999393;28;20022;-68
2021/03/30 11:52:26;;;;;;;9.00;4.00;;;20.60;47.50;;;;;;5008479;28;20462;-68
2021/03/30 11:54:52;;;;;;;7.20;3.63;;;20.80;45.70;;;;;;5006740;28;20029;-68
2021/03/30 11:57:20;;;;;;;10.13;3.80;;;20.90;44.50;;;;;;5006864;28;20136;-69
2021/03/30 11:59:46;;;;;;;9.90;3.60;;;20.70;45.60;;;;;;5006075;28;20075;-68
2021/03/30 12:02:12;;;;;;;10.02;3.90;;;20.70;45.30;;;;;;4989733;28;20042;-69
2021/03/30 12:04:37;;;;;;;9.05;3.15;;;21.00;45.60;;;;;;5000262;28;20744;-69
2021/03/30 12:07:03;;;;;;;9.73;4.03;;;21.20;45.70;;;;;;5002895;28;20030;-68
2021/03/30 12:09:29;;;;;;;9.30;3.42;;;21.60;45.10;;;;;;5004269;28;20034;-69
2021/03/30 12:11:55;;;;;;;10.23;4.13;;;21.80;43.90;;;;;;4999991;28;20037;-68
2021/03/30 12:14:20;;;;;;;9.18;3.13;;;22.00;44.70;;;;;;5003913;28;20484;-69
2021/03/30 12:16:50;;;;;;;8.82;3.15;;;21.90;40.40;;;;;;5006752;28;20105;-69
2021/03/30 12:19:17;;;;;;;6.65;2.80;;;22.10;40.00;;;;;;5000278;28;20113;-69
2021/03/30 12:21:45;;;;;;;7.90;3.40;;;21.60;39.90;;;;;;5005276;28;20038;-68
2021/03/30 12:24:11;;;;;;;9.30;2.70;;;21.70;41.90;;;;;;4989332;28;20398;-68
2021/03/30 12:26:36;;;;;;;9.32;3.33;;;22.10;39.80;;;;;;5003501;28;20026;-69
2021/03/30 12:29:03;;;;;;;12.27;3.28;;;22.20;40.80;;;;;;5002014;28;20482;-69
2021/03/30 12:31:31;;;;;;;8.40;2.50;;;22.40;40.80;;;;;;5005505;28;20353;-69
2021/03/30 12:33:56;;;;;;;4.57;2.47;;;22.00;40.30;;;;;;5010393;28;20427;-68
2021/03/30 12:36:22;;;;;;;5.85;2.42;;;22.50;38.20;;;;;;5005326;28;20026;-69
2021/03/30 12:38:48;;;;;;;8.60;2.60;;;22.20;38.30;;;;;;5006062;28;20030;-69
2021/03/30 12:41:13;;;;;;;8.32;2.85;;;22.30;38.60;;;;;;5006184;28;20397;-69
2021/03/30 12:43:39;;;;;;;7.72;3.00;;;22.20;38.10;;;;;;5011535;28;20490;-68
2021/03/30 12:46:05;;;;;;;5.85;2.38;;;22.40;37.80;;;;;;5007220;28;20036;-69
2021/03/30 12:48:30;;;;;;;9.10;2.70;;;22.00;38.30;;;;;;5011434;28;20042;-66
2021/03/30 12:50:56;;;;;;;12.05;3.72;;;22.20;37.90;;;;;;5011090;28;20029;-67
2021/03/30 12:53:22;;;;;;;12.02;3.60;;;22.50;38.40;;;;;;5012636;28;20389;-66
2021/03/30 12:55:48;;;;;;;10.02;3.47;;;22.20;40.00;;;;;;5001302;28;20034;-69
2021/03/30 12:58:14;;;;;;;7.63;2.83;;;23.00;39.30;;;;;;4998798;28;20568;-66
2021/03/30 13:00:39;;;;;;;6.68;2.60;;;23.00;36.20;;;;;;5005840;28;20044;-67